Data for 08/09/2007

Time Sea-Level Adjusted Pressure Absolute Pressure Temperature Relative Humidity Dew Point   
(mb) (inHg) (mb) (inHg) (C) (F) (%) (C) (F)
00:05 1017 30.03 847 25.01 19.3 66.7 32 2.5 36.5
00:10 1017 30.03 847 25.01 18.8 65.9 41 5.3 41.5
00:15 1017 30.03 847 25.01 18.7 65.7 34 2.6 36.8
00:20 1018 30.06 847 25.01 17.9 64.3 41 4.8 40.6
00:25 1018 30.06 847 25.01 17.3 63.2 38 3.2 37.7
00:30 1017 30.03 847 25.01 17.4 63.3 38 2.9 37.2
00:35 1017 30.03 847 25.01 17.2 63 39 3.3 38
00:40 1017 30.03 847 25.01 16.6 61.8 39 2.8 37.1
00:45 1017 30.03 847 25.01 16.2 61.2 43 3.7 38.7
00:50 1017 30.03 847 25.01 16.1 61 43 3.6 38.4
00:55 1017 30.03 847 25.01 15.9 60.7 41 2.9 37.1
01:00 1017 30.03 847 25.01 15.7 60.2 42 2.8 37
01:05 1017 30.03 847 25.01 15.6 60 44 3.6 38.5
01:10 1017 30.03 846 24.98 15.7 60.2 41 2.5 36.4
01:15 1017 30.03 847 25.01 15.9 60.6 39 2.2 35.9
01:20 1017 30.03 847 25.01 15.7 60.3 42 2.9 37.2
01:25 1017 30.03 847 25.01 15 58.9 44 2.9 37.3
01:30 1017 30.03 847 25.01 15 58.9 41 1.9 35.5
01:35 1017 30.03 847 25.01 15.5 59.8 40 1.9 35.4
01:40 1017 30.03 847 25.01 15.7 60.2 41 2.5 36.5
01:45 1017 30.03 847 25.01 15.6 60 41 2.6 36.6
01:50 1017 30.03 847 25.01 15.5 59.9 42 2.6 36.7
01:55 1017 30.03 847 25.01 15.6 60 41 2.6 36.7
02:00 1017 30.03 847 25.01 15.8 60.4 38 1.7 35.1
02:05 1017 30.03 846 24.98 16 60.9 37 1.4 34.5
02:10 1017 30.03 846 24.98 16.1 60.9 37 1.7 35
02:15 1017 30.03 846 24.98 15.9 60.6 39 1.9 35.4
02:20 1017 30.03 846 24.98 15.7 60.2 40 2.1 35.7
02:25 1017 30.03 847 25.01 15.4 59.7 40 1.9 35.5
02:30 1017 30.03 847 25.01 15.9 60.6 38 1.9 35.4
02:35 1017 30.03 847 25.01 16 60.7 37 1.6 34.8
02:40 1017 30.03 847 25.01 16.1 60.9 38 1.7 35.1
02:45 1017 30.03 847 25.01 16.4 61.4 38 2.1 35.8
02:50 1017 30.03 847 25.01 16.5 61.6 34 0.5 33
02:55 1017 30.03 847 25.01 17.1 62.9 35 1.8 35.2
03:00 1018 30.06 847 25.01 16.8 62.2 35 1.5 34.7
03:05 1018 30.06 847 25.01 16.2 61.1 39 2.3 36.1
03:10 1018 30.06 847 25.01 15.8 60.4 40 2.2 35.9
03:15 1018 30.06 847 25.01 15 59 42 2.3 36.2
03:20 1018 30.06 847 25.01 14.5 58.2 46 3.2 37.8
03:25 1018 30.06 847 25.01 14.8 58.7 41 1.6 35
03:30 1018 30.06 847 25.01 14.5 58.2 44 2.6 36.7
03:35 1018 30.06 847 25.01 14.3 57.8 44 2.3 36.1
03:40 1017 30.03 847 25.01 14.2 57.5 43 1.7 35.1
03:45 1017 30.03 847 25.01 14 57.3 45 2.3 36.2
03:50 1018 30.06 847 25.01 13.7 56.6 47 2.5 36.5
03:55 1018 30.06 847 25.01 13.5 56.3 47 2.4 36.3
04:00 1018 30.06 847 25.01 13.5 56.2 47 2.3 36.2
04:05 1018 30.06 847 25.01 13.5 56.2 46 2.2 36
04:10 1018 30.06 847 25.01 13.5 56.2 46 2.1 35.8
04:15 1018 30.06 847 25.01 13.2 55.8 47 2.1 35.7
04:20 1018 30.06 847 25.01 13 55.4 48 2.4 36.3
04:25 1018 30.06 847 25.01 12.6 54.6 50 2.5 36.5
04:30 1018 30.06 847 25.01 12.6 54.7 49 2.4 36.2
04:35 1018 30.06 847 25.01 12.7 54.8 48 2.1 35.8
04:40 1018 30.06 847 25.01 12.8 55 47 1.9 35.5
04:45 1018 30.06 847 25.01 13.1 55.7 47 2.1 35.7
04:50 1018 30.06 847 25.01 13.3 55.9 46 2 35.6
04:55 1018 30.06 847 25.01 13.4 56.1 46 2 35.7
05:00 1018 30.06 847 25.01 13.5 56.3 45 1.8 35.2
05:05 1018 30.06 847 25.01 13.6 56.4 45 1.9 35.5
05:10 1018 30.06 847 25.01 13.8 56.8 43 1.6 34.9
05:15 1018 30.06 847 25.01 13.7 56.7 45 2.2 35.9
05:20 1018 30.06 847 25.01 13.6 56.4 46 2.2 36
05:25 1018 30.06 847 25.01 13.5 56.2 44 1.6 34.8
05:30 1018 30.06 847 25.01 14 57.2 44 1.9 35.5
05:35 1018 30.06 847 25.01 13.9 57.1 43 1.7 35.1
05:40 1018 30.06 847 25.01 13.8 56.8 45 2 35.6
05:45 1018 30.06 847 25.01 13.7 56.6 44 1.9 35.4
05:50 1018 30.06 847 25.01 13.4 56.1 46 2 35.6
05:55 1018 30.06 848 25.04 13.6 56.6 44 1.7 35.1
06:00 1018 30.06 848 25.04 13.7 56.7 45 2 35.5
06:05 1018 30.06 848 25.04 13.8 56.8 44 1.7 35.1
06:10 1018 30.06 848 25.04 13.6 56.4 46 2.2 36
06:15 1018 30.06 848 25.04 13 55.3 48 2.3 36.2
06:20 1018 30.06 848 25.04 12.9 55.2 48 2.1 35.8
06:25 1018 30.06 848 25.04 13.1 55.5 46 1.8 35.3
06:30 1019 30.09 848 25.04 13.5 56.3 46 2.1 35.7
06:35 1019 30.09 848 25.04 13.7 56.7 45 2.1 35.7
06:40 1019 30.09 848 25.04 13.8 56.9 45 2.2 36
06:45 1019 30.09 848 25.04 13.8 56.8 46 2.5 36.5
06:50 1019 30.09 848 25.04 13.7 56.6 47 2.7 36.8
06:55 1019 30.09 848 25.04 13.7 56.6 46 2.2 36
07:00 1019 30.09 848 25.04 13.5 56.2 49 3.1 37.6
07:05 1019 30.09 848 25.04 13.3 55.9 48 2.7 36.8
07:10 1019 30.09 848 25.04 13.5 56.4 48 2.8 37
07:15 1019 30.09 848 25.04 13.5 56.4 48 2.9 37.2
07:20 1019 30.09 848 25.04 13.4 56.1 47 2.4 36.3
07:25 1019 30.09 848 25.04 13.6 56.5 49 3.3 37.9
07:30 1019 30.09 848 25.04 13.6 56.5 48 2.9 37.3
07:35 1019 30.09 848 25.04 14.1 57.5 48 3.3 38
07:40 1019 30.09 848 25.04 14.2 57.5 48 3.5 38.3
07:45 1019 30.09 848 25.04 14.3 57.7 49 3.9 39.1
07:50 1019 30.09 849 25.07 14.3 57.8 49 3.8 38.9
07:55 1019 30.09 849 25.07 14.4 57.9 48 3.6 38.4
08:00 1019 30.09 849 25.07 14.8 58.7 49 4.1 39.5
08:05 1019 30.09 849 25.07 15 59 49 4.4 39.9
08:10 1019 30.09 849 25.07 15.3 59.5 49 4.7 40.5
08:15 1019 30.09 849 25.07 15.6 60.1 48 4.7 40.4
08:20 1019 30.09 849 25.07 15.6 60 49 4.9 40.8
08:25 1019 30.09 849 25.07 15.7 60.2 50 5.3 41.5
08:30 1019 30.09 849 25.07 15.9 60.6 48 4.9 40.8
08:35 1019 30.09 849 25.07 16.3 61.3 48 5.3 41.5
08:40 1020 30.12 849 25.07 16.6 61.9 46 5.1 41.2
08:45 1020 30.12 849 25.07 17 62.5 46 5.4 41.7
08:50 1020 30.12 849 25.07 17.2 63 45 5.2 41.4
08:55 1020 30.12 849 25.07 17.6 63.8 43 5 41
09:00 1020 30.12 849 25.07 18.1 64.6 40 4.3 39.8
09:05 1020 30.12 849 25.07 18.5 65.2 39 4.3 39.8
09:10 1020 30.12 849 25.07 19 66.3 38 4.6 40.2
09:15 1020 30.12 849 25.07 19.7 67.5 36 4.2 39.5
09:20 1020 30.12 849 25.07 20.6 69 33 4.1 39.3
09:25 1020 30.12 849 25.07 20.8 69.4 33 4.2 39.5
09:30 1020 30.12 849 25.07 20.4 68.7 32 3.2 37.7
09:35 1020 30.12 849 25.07 20.4 68.6 33 3.5 38.4
09:40 1020 30.12 849 25.07 20.8 69.4 32 3.6 38.4
09:45 1020 30.12 849 25.07 21.1 69.9 30 3 37.5
09:50 1020 30.12 849 25.07 21.2 70.2 31 3.7 38.7
09:55 1020 30.12 849 25.07 21.4 70.5 30 3.4 38.1
10:00 1020 30.12 849 25.07 22 71.7 29 3.5 38.3
10:05 1019 30.09 849 25.07 21.8 71.3 29 3.4 38.2
10:10 1019 30.09 849 25.07 22 71.6 30 3.8 38.8
10:15 1019 30.09 849 25.07 21.7 71 30 3.6 38.4
10:20 1019 30.09 849 25.07 22 71.7 30 3.7 38.7
10:25 1020 30.12 849 25.07 22.4 72.3 29 3.7 38.7
10:30 1019 30.09 849 25.07 22.8 73 29 4 39.3
10:35 1019 30.09 849 25.07 22.5 72.4 31 4.7 40.5
10:40 1019 30.09 849 25.07 22.7 72.8 28 3.6 38.5
10:45 1019 30.09 849 25.07 23.2 73.7 30 4.8 40.6
10:50 1019 30.09 849 25.07 23.2 73.8 27 3.6 38.5
10:55 1019 30.09 849 25.07 23.1 73.6 29 4.2 39.5
11:00 1019 30.09 848 25.04 23.6 74.6 26 3.4 38.2
11:05 1019 30.09 849 25.07 23.8 74.9 27 3.9 39
11:10 1019 30.09 849 25.07 24 75.1 26 3.4 38.2
11:15 1019 30.09 848 25.04 24.9 76.7 25 4 39.2
11:20 1019 30.09 848 25.04 24.2 75.6 26 3.9 39.1
11:25 1019 30.09 848 25.04 24.7 76.5 26 4.2 39.6
11:30 1019 30.09 848 25.04 25.3 77.5 25 4 39.2
11:35 1019 30.09 848 25.04 25.2 77.4 24 3.4 38.1
11:40 1019 30.09 848 25.04 25.3 77.5 24 3.6 38.5
11:45 1019 30.09 848 25.04 25.4 77.6 23 3 37.4
11:50 1019 30.09 848 25.04 25.3 77.6 24 3.5 38.3
11:55 1019 30.09 848 25.04 25.3 77.5 23 2.7 36.8
12:00 1019 30.09 848 25.04 25.2 77.4 24 3.2 37.8
12:05 1019 30.09 848 25.04 24.9 76.7 24 3.1 37.6
12:10 1019 30.09 848 25.04 25.2 77.3 21 1.8 35.2
12:15 1019 30.09 848 25.04 25 77 21 1.1 34
12:20 1019 30.09 848 25.04 25.5 77.8 22 2.4 36.2
12:25 1019 30.09 848 25.04 26.4 79.4 22 3.1 37.5
12:30 1019 30.09 848 25.04 27.3 81.2 21 3.4 38.1
12:35 1019 30.09 848 25.04 26.8 80.2 23 4.3 39.7
12:40 1019 30.09 848 25.04 25.9 78.5 23 3.2 37.8
12:45 1019 30.09 848 25.04 26 78.7 21 2.5 36.4
12:50 1018 30.06 848 25.04 25.8 78.4 22 2.5 36.6
12:55 1018 30.06 847 25.01 26.7 80 22 3.2 37.8
13:00 1018 30.06 847 25.01 26.7 80.1 21 2.5 36.5
13:05 1018 30.06 847 25.01 27.4 81.2 19 2.2 35.9
13:10 1018 30.06 847 25.01 27.5 81.6 20 2.5 36.6
13:15 1018 30.06 847 25.01 27.1 80.8 21 3.5 38.3
13:20 1018 30.06 847 25.01 27.2 81 20 2.3 36.1
13:25 1018 30.06 847 25.01 28.3 82.9 20 3.2 37.8
13:30 1018 30.06 847 25.01 27.8 82 19 2.4 36.2
13:35 1018 30.06 847 25.01 27.6 81.6 19 2.1 35.8
13:40 1018 30.06 847 25.01 28.7 83.6 18 2.7 36.9
13:45 1018 30.06 847 25.01 29 84.1 18 2.6 36.7
13:50 1018 30.06 847 25.01 29.2 84.5 19 3.5 38.4
13:55 1018 30.06 847 25.01 29.4 84.9 18 2.7 36.8
14:00 1018 30.06 847 25.01 28.4 83.1 19 3.2 37.8
14:05 1018 30.06 847 25.01 28.7 83.6 18 2 35.5
14:10 1018 30.06 847 25.01 28.3 82.9 19 2.7 36.9
14:15 1017 30.03 847 25.01 27.2 81 18 1.1 34.1
14:20 1017 30.03 847 25.01 27.3 81.1 19 1.6 34.9
14:25 1017 30.03 847 25.01 28.5 83.2 18 2.1 35.7
14:30 1017 30.03 846 24.98 29.2 84.6 15 0.7 33.3
14:35 1017 30.03 846 24.98 29.5 85.1 15 0.9 33.7
14:40 1017 30.03 846 24.98 28.3 83 16 0.4 32.6
14:45 1017 30.03 846 24.98 28 82.5 16 0.2 32.4
14:50 1017 30.03 846 24.98 28.5 83.3 17 1.2 34.2
14:55 1017 30.03 846 24.98 28.9 84 16 0.8 33.4
15:00 1017 30.03 846 24.98 28.6 83.6 16 0.5 32.9
15:05 1017 30.03 846 24.98 29.4 85 16 1 33.8
15:10 1017 30.03 846 24.98 29.1 84.3 17 1.8 35.3
15:15 1017 30.03 846 24.98 29.8 85.6 15 0.5 32.9
15:20 1017 30.03 846 24.98 29.8 85.6 16 1.2 34.1
15:25 1017 30.03 846 24.98 28.9 83.9 15 0.2 32.3
15:30 1017 30.03 846 24.98 29.3 84.7 15 0.6 33.1
15:35 1017 30.03 846 24.98 29.5 85.1 16 1 33.8
15:40 1017 30.03 846 24.98 29.7 85.4 15 0.8 33.4
15:45 1016 30 846 24.98 29.8 85.7 14 0.2 32.3
15:50 1016 30 846 24.98 30 86.1 15 0.6 33.1
15:55 1016 30 846 24.98 29.7 85.5 15 0.2 32.4
16:00 1016 30 846 24.98 30.5 87 15 1.3 34.4
16:05 1016 30 846 24.98 30.2 86.3 14 0.3 32.6
16:10 1016 30 846 24.98 29.4 85 15 0.7 33.2
16:15 1017 30.03 846 24.98 28.6 83.5 15 -0.2 31.6
16:20 1016 30 845 24.95 28.9 84.1 15 0.2 32.3
16:25 1016 30 845 24.95 29.9 85.9 15 1 33.7
16:30 1016 30 845 24.95 30.3 86.6 14 0.5 33
16:35 1016 30 845 24.95 29.3 84.8 15 -0.1 31.9
16:40 1016 30 845 24.95 29.2 84.5 15 0.3 32.6
16:45 1016 30 845 24.95 30.1 86.2 15 0.6 33.1
16:50 1016 30 845 24.95 30.1 86.1 15 0.8 33.4
16:55 1016 30 845 24.95 29.5 85.1 15 0.9 33.6
17:00 1016 30 845 24.95 28.8 83.8 16 0.5 33
17:05 1016 30 845 24.95 29 84.2 15 0.2 32.4
17:10 1016 30 845 24.95 29.3 84.7 16 1.1 34
17:15 1016 30 845 24.95 29.4 84.8 15 0.7 33.2
17:20 1016 30 845 24.95 29.3 84.7 15 0.3 32.6
17:25 1016 30 845 24.95 28.7 83.7 16 0.3 32.6
17:30 1016 30 845 24.95 28.4 83 15 -0 32
17:35 1016 30 845 24.95 28.1 82.6 16 0.4 32.7
17:40 1016 30 845 24.95 28.3 82.9 19 2.6 36.7
17:45 1016 30 845 24.95 28.2 82.8 17 1.3 34.3
17:50 1016 30 845 24.95 28.1 82.7 17 1.4 34.5
17:55 1016 30 845 24.95 28.1 82.6 17 1.4 34.5
18:00 1016 30 845 24.95 28.8 83.8 17 1.3 34.3
18:05 1016 30 845 24.95 29.3 84.7 16 1.2 34.1
18:10 1016 30 845 24.95 29 84.1 17 2 35.6
18:15 1016 30 845 24.95 28.2 82.8 19 2.6 36.6
18:20 1016 30 845 24.95 27.9 82.1 18 1.8 35.2
18:25 1016 30 845 24.95 28.1 82.6 18 1.6 35
18:30 1016 30 845 24.95 28.3 83 18 2.4 36.3
18:35 1016 30 845 24.95 28.4 83.1 19 2.9 37.2
18:40 1016 30 845 24.95 28.4 83.1 19 2.6 36.7
18:45 1016 30 845 24.95 28 82.3 19 2.4 36.4
18:50 1016 30 845 24.95 27.5 81.5 20 2.7 36.9
18:55 1016 30 845 24.95 27.3 81.1 20 2.8 37.1
19:00 1016 30 846 24.98 27.1 80.8 20 2.7 36.8
19:05 1016 30 846 24.98 27 80.7 20 2.3 36.2
19:10 1016 30 845 24.95 27 80.5 20 2.3 36.1
19:15 1016 30 845 24.95 26.6 79.9 21 2.6 36.7
19:20 1016 30 845 24.95 26.4 79.5 21 2.7 36.8
19:25 1016 30 845 24.95 26.3 79.3 22 3 37.4
19:30 1016 30 846 24.98 26.1 79 23 3.7 38.6
19:35 1017 30.03 846 24.98 25.9 78.6 23 3.5 38.3
19:40 1017 30.03 846 24.98 25.6 78.1 23 3.3 38
19:45 1017 30.03 846 24.98 25.5 77.9 21 2.1 35.7
19:50 1017 30.03 846 24.98 25.4 77.7 23 2.8 37
19:55 1017 30.03 846 24.98 25.4 77.6 21 1.9 35.4
20:00 1017 30.03 846 24.98 25.2 77.4 21 1.5 34.7
20:05 1017 30.03 846 24.98 25 77 21 1.5 34.8
20:10 1017 30.03 846 24.98 24.7 76.4 21 1.4 34.6
20:15 1017 30.03 846 24.98 24.6 76.2 21 1.3 34.3
20:20 1017 30.03 846 24.98 24.6 76.2 21 1.3 34.4
20:25 1017 30.03 846 24.98 24.6 76.2 21 1.2 34.1
20:30 1017 30.03 846 24.98 24.4 75.8 22 1.6 34.8
20:35 1017 30.03 846 24.98 24.4 75.8 22 1.6 34.8
20:40 1017 30.03 846 24.98 24.3 75.8 22 1.5 34.7
20:45 1017 30.03 846 24.98 24.3 75.7 23 2.1 35.9
20:50 1017 30.03 846 24.98 23.9 75 26 3.5 38.2
20:55 1017 30.03 846 24.98 23.5 74.2 25 2.6 36.6
21:00 1017 30.03 846 24.98 23.7 74.6 26 3.4 38.1
21:05 1017 30.03 846 24.98 23.7 74.6 23 1.5 34.7
21:10 1017 30.03 847 25.01 23.6 74.5 28 4.2 39.5
21:15 1018 30.06 847 25.01 23 73.5 32 5.8 42.5
21:20 1018 30.06 847 25.01 22.5 72.4 31 4.6 40.3
21:25 1018 30.06 847 25.01 22 71.6 33 5.3 41.5
21:30 1018 30.06 847 25.01 21.8 71.3 32 4.4 40
21:35 1018 30.06 847 25.01 21.5 70.8 33 4.7 40.5
21:40 1018 30.06 847 25.01 21.1 69.9 33 4.2 39.6
21:45 1018 30.06 847 25.01 21 69.8 31 3.6 38.5
21:50 1018 30.06 847 25.01 20.9 69.7 33 4.1 39.4
21:55 1017 30.03 847 25.01 20.6 69 32 3.4 38.1
22:00 1017 30.03 847 25.01 21 69.8 30 2.9 37.3
22:05 1017 30.03 847 25.01 21.3 70.4 30 3.4 38.1
22:10 1017 30.03 847 25.01 21.4 70.6 30 3.1 37.7
22:15 1017 30.03 847 25.01 21.7 71 29 3 37.4
22:20 1017 30.03 846 24.98 21.8 71.3 29 3 37.4
22:25 1017 30.03 846 24.98 21.8 71.2 29 3.2 37.8
22:30 1017 30.03 846 24.98 21.8 71.2 29 3.2 37.7
22:35 1017 30.03 847 25.01 21.7 71.1 30 3.5 38.3
22:40 1017 30.03 846 24.98 21.4 70.5 31 3.9 39
22:45 1017 30.03 847 25.01 21 69.7 31 3.4 38.2
22:50 1017 30.03 847 25.01 21 69.7 32 3.7 38.6
22:55 1017 30.03 847 25.01 20.7 69.3 36 5.2 41.4
23:00 1017 30.03 847 25.01 20.6 69 32 3.3 38
23:05 1017 30.03 847 25.01 20.7 69.3 31 3.2 37.8
23:10 1017 30.03 847 25.01 20.7 69.3 32 3.5 38.3
23:15 1017 30.03 847 25.01 20.5 68.9 32 3.4 38.1
23:20 1017 30.03 847 25.01 20.6 69.1 31 3 37.5
23:25 1017 30.03 847 25.01 20.8 69.5 31 3.3 37.9
23:30 1017 30.03 847 25.01 20.7 69.3 32 3.5 38.4
23:35 1017 30.03 846 24.98 20.5 68.9 32 3.5 38.4
23:40 1017 30.03 846 24.98 20.5 68.8 32 3.2 37.8
23:45 1017 30.03 846 24.98 20.7 69.2 31 3 37.5
23:50 1017 30.03 846 24.98 20.9 69.7 31 3.1 37.7
23:55 1017 30.03 846 24.98 21.1 70 30 2.9 37.2
24:00 1017 30.03 846 24.98 21 69.8 30 2.9 37.2